createdAt,value
2022-11-26T00:00:00.450Z,66.40
2022-11-26T00:02:44.417Z,66.24
2022-11-26T00:05:32.521Z,67.53
2022-11-26T00:08:21.993Z,65.73
2022-11-26T00:11:12.691Z,66.42
2022-11-26T00:13:56.478Z,66.53
2022-11-26T00:16:40.394Z,65.97
2022-11-26T00:19:24.161Z,65.42
2022-11-26T00:22:10.798Z,65.62
2022-11-26T00:24:57.301Z,66.19
2022-11-26T00:27:41.014Z,65.07
2022-11-26T00:30:27.065Z,64.70
2022-11-26T00:33:10.856Z,64.15
2022-11-26T00:35:58.563Z,64.25
2022-11-26T00:38:42.975Z,63.75
2022-11-26T00:41:32.113Z,64.82
2022-11-26T00:44:19.459Z,64.68
2022-11-26T00:47:03.291Z,64.12
2022-11-26T00:49:46.977Z,63.30
2022-11-26T00:52:34.223Z,62.48
2022-11-26T00:55:28.780Z,63.75
2022-11-26T00:58:25.896Z,63.87
2022-11-26T01:01:12.666Z,63.22
2022-11-26T01:03:58.454Z,64.66
2022-11-26T01:06:44.325Z,64.61
2022-11-26T01:09:28.080Z,65.22
2022-11-26T01:12:15.164Z,65.01
2022-11-26T01:15:00.361Z,67.53
2022-11-26T01:17:44.157Z,66.20
2022-11-26T01:20:30.095Z,66.65
2022-11-26T01:23:15.346Z,65.57
2022-11-26T01:26:02.470Z,65.93
2022-11-26T01:28:50.049Z,65.18
2022-11-26T01:31:35.302Z,66.21
2022-11-26T01:34:19.105Z,65.13
2022-11-26T01:37:02.903Z,64.02
2022-11-26T01:39:46.606Z,63.88
2022-11-26T01:42:42.383Z,63.63
2022-11-26T01:45:26.837Z,64.75
2022-11-26T01:48:24.709Z,65.49
2022-11-26T01:51:10.508Z,66.07
2022-11-26T01:53:56.460Z,66.69
2022-11-26T01:56:44.723Z,66.81
2022-11-26T01:59:30.670Z,65.72
2022-11-26T02:02:14.798Z,66.23
2022-11-26T02:05:06.975Z,64.31
2022-11-26T02:07:51.861Z,65.76
2022-11-26T02:10:35.872Z,65.51
2022-11-26T02:13:19.786Z,65.50
2022-11-26T02:16:12.588Z,66.29
2022-11-26T02:19:18.553Z,66.80
2022-11-26T02:22:10.330Z,66.00
2022-11-26T02:25:02.591Z,66.31
2022-11-26T02:28:18.064Z,66.49
2022-11-26T02:31:08.439Z,65.65
2022-11-26T02:33:58.411Z,66.06
2022-11-26T02:36:48.407Z,66.89
2022-11-26T02:39:32.437Z,66.01
2022-11-26T02:42:28.243Z,66.29
2022-11-26T02:45:15.619Z,66.51
2022-11-26T02:48:04.596Z,66.07
2022-11-26T02:50:51.578Z,66.21
2022-11-26T02:53:36.973Z,66.90
2022-11-26T02:56:23.730Z,65.45
2022-11-26T02:59:08.207Z,65.35
2022-11-26T03:01:57.203Z,64.91
2022-11-26T03:04:47.175Z,65.05
2022-11-26T03:07:33.630Z,64.94
2022-11-26T03:10:20.256Z,65.98
2022-11-26T03:13:04.078Z,64.96
2022-11-26T03:15:47.794Z,66.32
2022-11-26T03:18:31.616Z,68.18
2022-11-26T03:21:16.694Z,68.71
2022-11-26T03:24:00.492Z,66.81
2022-11-26T03:26:44.455Z,66.24
2022-11-26T03:29:28.458Z,66.74
2022-11-26T03:32:12.445Z,66.62
2022-11-26T03:34:56.153Z,66.15
2022-11-26T03:37:41.255Z,67.23
2022-11-26T03:40:24.969Z,67.37
2022-11-26T03:43:08.704Z,66.64
2022-11-26T03:45:52.683Z,66.67
2022-11-26T03:48:36.521Z,66.58
2022-11-26T03:51:20.231Z,66.95
2022-11-26T03:54:05.547Z,66.63
2022-11-26T03:56:49.209Z,65.83
2022-11-26T03:59:33.228Z,66.42
2022-11-26T04:02:17.420Z,66.29
2022-11-26T04:05:01.128Z,64.63
2022-11-26T04:07:47.001Z,65.52
2022-11-26T04:10:32.353Z,65.56
2022-11-26T04:13:16.106Z,66.07
2022-11-26T04:16:00.041Z,65.82
2022-11-26T04:18:44.069Z,65.76
2022-11-26T04:21:27.848Z,65.24
2022-11-26T04:24:11.615Z,65.42
2022-11-26T04:26:56.715Z,64.09
2022-11-26T04:29:40.904Z,64.48
2022-11-26T04:32:25.570Z,65.19
2022-11-26T04:35:10.202Z,65.78
2022-11-26T04:37:54.046Z,65.57
2022-11-26T04:40:37.967Z,65.36
2022-11-26T04:43:23.079Z,66.56
2022-11-26T04:46:07.201Z,65.86
2022-11-26T04:48:50.951Z,66.80
2022-11-26T04:51:34.706Z,67.06
2022-11-26T04:54:18.453Z,67.32
2022-11-26T04:57:02.317Z,67.57
2022-11-26T04:59:47.452Z,66.22
2022-11-26T05:02:31.195Z,66.01
2022-11-26T05:05:15.374Z,65.11
2022-11-26T05:08:00.354Z,65.49
2022-11-26T05:10:44.093Z,64.67
2022-11-26T05:13:27.948Z,65.08
2022-11-26T05:16:13.278Z,65.52
2022-11-26T05:18:57.099Z,64.54
2022-11-26T05:21:40.897Z,65.11
2022-11-26T05:24:24.882Z,65.29
2022-11-26T05:27:08.918Z,65.16
2022-11-26T05:29:52.633Z,64.38
2022-11-26T05:32:37.749Z,64.82
2022-11-26T05:35:21.869Z,64.85
2022-11-26T05:38:05.978Z,64.85
2022-11-26T05:40:49.791Z,64.95
2022-11-26T05:43:33.510Z,65.91
2022-11-26T05:46:19.265Z,65.90
2022-11-26T05:49:04.467Z,66.44
2022-11-26T05:51:48.252Z,67.60
2022-11-26T05:54:32.073Z,68.55
2022-11-26T05:57:15.819Z,68.78
2022-11-26T05:59:59.635Z,69.64
2022-11-26T06:02:43.920Z,68.40
2022-11-26T06:05:29.337Z,68.05
2022-11-26T06:08:13.361Z,67.42
2022-11-26T06:10:57.419Z,66.64
2022-11-26T06:13:41.528Z,65.83
2022-11-26T06:16:25.534Z,65.66
2022-11-26T06:19:09.540Z,63.91
2022-11-26T06:21:54.674Z,62.79
2022-11-26T06:24:38.847Z,63.19
2022-11-26T06:27:22.948Z,62.20
2022-11-26T06:30:09.483Z,62.89
2022-11-26T06:32:53.344Z,61.98
2022-11-26T06:35:37.332Z,62.08
2022-11-26T06:38:22.711Z,62.40
2022-11-26T06:41:08.543Z,61.68
2022-11-26T06:43:52.421Z,60.95
2022-11-26T06:46:36.871Z,61.95
2022-11-26T06:49:20.684Z,62.18
2022-11-26T06:52:04.878Z,62.46
2022-11-26T06:54:51.318Z,62.09
2022-11-26T06:57:35.262Z,62.23
2022-11-26T07:00:19.690Z,62.78
2022-11-26T07:03:03.441Z,62.80
2022-11-26T07:05:47.253Z,61.95
2022-11-26T07:08:31.144Z,61.98
2022-11-26T07:11:16.314Z,61.63
2022-11-26T07:14:01.554Z,62.46
2022-11-26T07:16:45.471Z,61.03
2022-11-26T07:19:29.332Z,61.31
2022-11-26T07:22:13.181Z,60.76
2022-11-26T07:24:57.031Z,60.67
2022-11-26T07:27:42.567Z,60.58
2022-11-26T07:30:26.628Z,60.08
2022-11-26T07:33:10.315Z,59.57
2022-11-26T07:35:54.098Z,59.64
2022-11-26T07:38:38.160Z,59.51
2022-11-26T07:41:21.954Z,59.32
2022-11-26T07:44:07.305Z,59.54
2022-11-26T07:46:51.215Z,59.45
2022-11-26T07:49:35.003Z,58.46
2022-11-26T07:52:18.864Z,59.10
2022-11-26T07:55:04.207Z,57.63
2022-11-26T07:57:49.662Z,58.04
2022-11-26T08:00:34.692Z,58.14
2022-11-26T08:03:18.502Z,58.34
2022-11-26T08:06:02.238Z,58.70
2022-11-26T08:08:46.413Z,57.79
2022-11-26T08:11:31.787Z,57.99
2022-11-26T08:14:15.619Z,58.79
2022-11-26T08:17:00.648Z,57.83
2022-11-26T08:19:44.370Z,58.17
2022-11-26T08:22:30.390Z,57.69
2022-11-26T08:25:14.309Z,58.39
2022-11-26T08:27:58.078Z,57.47
2022-11-26T08:30:41.781Z,57.58
2022-11-26T08:33:26.918Z,57.36
2022-11-26T08:36:11.610Z,57.74
2022-11-26T08:38:55.361Z,58.58
2022-11-26T08:41:39.089Z,58.11
2022-11-26T08:44:22.998Z,57.72
2022-11-26T08:47:06.839Z,57.23
2022-11-26T08:49:51.873Z,57.44
2022-11-26T08:52:35.632Z,57.94
2022-11-26T08:55:23.747Z,57.46
2022-11-26T08:58:08.111Z,57.53
2022-11-26T09:00:51.833Z,58.33
2022-11-26T09:03:35.674Z,57.02
2022-11-26T09:06:22.184Z,56.94
2022-11-26T09:09:17.667Z,57.60
2022-11-26T09:12:03.327Z,57.38
2022-11-26T09:14:47.106Z,57.26
2022-11-26T09:17:30.856Z,57.81
2022-11-26T09:20:15.128Z,58.09
2022-11-26T09:23:00.330Z,56.37
2022-11-26T09:25:44.087Z,57.57
2022-11-26T09:28:29.080Z,58.20
2022-11-26T09:31:12.902Z,57.73
2022-11-26T09:33:57.770Z,56.61
2022-11-26T09:36:41.965Z,57.32
2022-11-26T09:39:28.646Z,57.86
2022-11-26T09:42:23.100Z,57.09
2022-11-26T09:45:19.424Z,55.90
2022-11-26T09:48:04.947Z,57.34
2022-11-26T09:50:50.633Z,56.61
2022-11-26T09:53:37.845Z,55.49
2022-11-26T09:56:27.410Z,56.13
2022-11-26T09:59:14.570Z,55.69
2022-11-26T10:01:58.369Z,53.17
2022-11-26T10:04:42.574Z,55.21
2022-11-26T10:07:48.216Z,54.58
2022-11-26T10:10:39.527Z,54.28
2022-11-26T10:13:34.200Z,54.38
2022-11-26T10:16:27.996Z,55.70
2022-11-26T10:19:19.882Z,56.06
2022-11-26T10:22:12.721Z,54.64
2022-11-26T10:24:58.398Z,53.37
2022-11-26T10:27:42.515Z,52.46
2022-11-26T10:30:29.505Z,51.68
2022-11-26T10:33:19.320Z,52.25
2022-11-26T10:36:07.774Z,52.14
2022-11-26T10:38:51.573Z,51.87
2022-11-26T10:41:38.174Z,52.15
2022-11-26T10:44:33.772Z,52.76
2022-11-26T10:47:27.894Z,51.32
2022-11-26T10:53:27.215Z,52.10
2022-11-26T10:56:19.869Z,51.02
2022-11-26T10:59:06.894Z,52.06
2022-11-26T11:01:52.903Z,51.36
2022-11-26T11:04:46.395Z,52.24
2022-11-26T11:07:37.102Z,53.32
2022-11-26T11:10:24.241Z,53.30
2022-11-26T11:13:13.645Z,51.35
2022-11-26T11:16:02.828Z,51.02
2022-11-26T11:18:52.412Z,51.26
2022-11-26T11:21:43.824Z,51.61
2022-11-26T11:24:30.820Z,51.93
2022-11-26T11:27:25.282Z,51.40
2022-11-26T11:30:25.346Z,51.43
2022-11-26T11:33:19.172Z,50.08
2022-11-26T11:36:06.190Z,50.83
2022-11-26T11:38:53.324Z,50.58
2022-11-26T11:41:43.454Z,50.38
2022-11-26T11:44:38.583Z,50.29
2022-11-26T11:47:37.317Z,50.85
2022-11-26T11:50:25.335Z,51.01
2022-11-26T11:53:35.378Z,49.56
2022-11-26T11:56:25.894Z,49.99
2022-11-26T11:59:37.335Z,50.33
2022-11-26T12:02:39.201Z,50.47
2022-11-26T12:06:07.200Z,50.06
2022-11-26T12:09:04.129Z,50.85
2022-11-26T12:11:57.479Z,51.91
2022-11-26T12:14:47.445Z,51.94
2022-11-26T12:17:36.853Z,50.24
2022-11-26T12:20:27.221Z,50.15
2022-11-26T12:23:25.575Z,48.79
2022-11-26T12:26:16.488Z,49.20
2022-11-26T12:29:05.382Z,49.42
2022-11-26T12:31:53.987Z,49.44
2022-11-26T12:34:45.069Z,49.61
2022-11-26T12:37:32.823Z,49.80
2022-11-26T12:40:32.658Z,49.85
2022-11-26T12:43:21.332Z,51.67
2022-11-26T12:46:11.104Z,50.04
2022-11-26T12:49:02.528Z,49.78
2022-11-26T12:51:51.275Z,49.95
2022-11-26T12:54:41.478Z,49.13
2022-11-26T12:57:29.396Z,48.75
2022-11-26T13:00:19.976Z,50.16
2022-11-26T13:03:17.037Z,47.94
2022-11-26T13:06:05.208Z,48.22
2022-11-26T13:08:57.711Z,49.38
2022-11-26T13:11:47.362Z,49.72
2022-11-26T13:14:42.187Z,49.44
2022-11-26T13:17:32.441Z,48.79
2022-11-26T13:20:38.004Z,53.73
2022-11-26T13:23:35.850Z,49.52
2022-11-26T13:26:33.919Z,49.00
2022-11-26T13:29:32.467Z,49.29
2022-11-26T13:33:02.085Z,51.02
2022-11-26T13:36:13.298Z,49.54
2022-11-26T13:39:23.189Z,49.60
2022-11-26T13:42:22.056Z,49.56
2022-11-26T13:45:53.477Z,49.87
2022-11-26T13:48:48.574Z,50.24
2022-11-26T13:51:40.935Z,49.58
2022-11-26T13:54:30.131Z,50.71
2022-11-26T13:57:17.676Z,50.81
2022-11-26T14:00:05.080Z,50.51
2022-11-26T14:02:51.153Z,50.78
2022-11-26T14:06:09.912Z,51.08
2022-11-26T14:08:55.575Z,51.18
2022-11-26T14:12:00.463Z,50.56
2022-11-26T14:14:46.136Z,50.35
2022-11-26T14:17:35.099Z,51.01
2022-11-26T14:20:19.248Z,51.10
2022-11-26T14:23:43.689Z,51.22
2022-11-26T14:26:34.444Z,52.89
2022-11-26T14:29:19.315Z,52.54
2022-11-26T14:32:03.887Z,52.86
2022-11-26T14:34:53.081Z,52.31
2022-11-26T14:37:36.971Z,53.31
2022-11-26T14:40:26.923Z,53.36
2022-11-26T14:43:16.797Z,51.98
2022-11-26T14:46:06.553Z,52.45
2022-11-26T14:48:51.182Z,53.13
2022-11-26T14:51:36.013Z,53.06
2022-11-26T14:54:26.659Z,53.37
2022-11-26T14:57:17.246Z,53.34
2022-11-26T15:00:06.550Z,53.79
2022-11-26T15:02:50.688Z,54.67
2022-11-26T15:05:42.070Z,54.41
2022-11-26T15:08:28.893Z,55.08
2022-11-26T15:11:15.089Z,55.93
2022-11-26T15:14:02.503Z,56.13
2022-11-26T15:16:54.428Z,56.91
2022-11-26T15:19:39.500Z,56.95
2022-11-26T15:22:29.724Z,58.11
2022-11-26T15:25:18.605Z,57.27
2022-11-26T15:28:04.261Z,58.71
2022-11-26T15:30:56.105Z,58.54
2022-11-26T15:33:42.416Z,58.83
2022-11-26T15:36:26.284Z,59.45
2022-11-26T15:39:26.178Z,59.37
2022-11-26T15:42:27.299Z,60.03
2022-11-26T15:45:16.769Z,61.01
2022-11-26T15:48:00.716Z,61.02
2022-11-26T15:50:48.203Z,61.73
2022-11-26T15:53:36.376Z,62.05
2022-11-26T15:56:21.844Z,62.63
2022-11-26T15:59:14.716Z,63.54
2022-11-26T16:02:12.265Z,62.80
2022-11-26T16:04:57.140Z,62.41
2022-11-26T16:07:58.213Z,63.32
2022-11-26T16:10:42.303Z,62.72
2022-11-26T16:13:28.774Z,63.11
2022-11-26T16:16:18.437Z,63.25
2022-11-26T16:19:04.439Z,63.31
2022-11-26T16:21:50.194Z,62.59
2022-11-26T16:24:39.062Z,62.88
2022-11-26T16:27:27.308Z,62.70
2022-11-26T16:30:15.896Z,62.73
2022-11-26T16:32:59.667Z,63.06
2022-11-26T16:35:45.807Z,62.86
2022-11-26T16:38:30.586Z,62.92
2022-11-26T16:41:17.546Z,62.42
2022-11-26T16:44:01.429Z,61.60
2022-11-26T16:46:46.015Z,61.96
2022-11-26T16:49:30.419Z,62.63
2022-11-26T16:52:17.334Z,62.71
2022-11-26T16:55:01.327Z,62.50
2022-11-26T16:57:49.911Z,62.82
2022-11-26T17:00:36.004Z,63.50
2022-11-26T17:03:22.775Z,63.44
2022-11-26T17:06:13.805Z,62.95
2022-11-26T17:08:58.450Z,63.46
2022-11-26T17:11:42.200Z,63.90
2022-11-26T17:14:27.370Z,63.84
2022-11-26T17:17:13.418Z,63.09
2022-11-26T17:19:57.880Z,63.64
2022-11-26T17:22:41.652Z,64.70
2022-11-26T17:25:25.416Z,65.24
2022-11-26T17:28:12.397Z,65.12
2022-11-26T17:30:57.626Z,65.64
2022-11-26T17:33:41.522Z,65.71
2022-11-26T17:36:25.868Z,65.32
2022-11-26T17:39:12.212Z,64.82
2022-11-26T17:41:56.095Z,65.87
2022-11-26T17:44:39.911Z,65.93
2022-11-26T17:47:27.321Z,66.30
2022-11-26T17:50:18.819Z,66.81
2022-11-26T17:53:02.637Z,66.62
2022-11-26T17:55:46.454Z,66.58
2022-11-26T17:58:30.270Z,67.04
2022-11-26T18:01:15.014Z,66.97
2022-11-26T18:04:00.181Z,67.15
2022-11-26T18:06:53.758Z,66.79
2022-11-26T18:09:38.130Z,67.44
2022-11-26T18:12:25.667Z,66.97
2022-11-26T18:15:10.157Z,66.67
2022-11-26T18:17:56.293Z,66.84
2022-11-26T18:20:44.330Z,66.90
2022-11-26T18:23:28.192Z,65.69
2022-11-26T18:26:17.495Z,66.14
2022-11-26T18:29:02.560Z,66.67
2022-11-26T18:31:46.347Z,65.31
2022-11-26T18:34:30.167Z,65.81
2022-11-26T18:37:15.375Z,65.53
2022-11-26T18:39:59.482Z,65.21
2022-11-26T18:42:43.461Z,64.67
2022-11-26T18:45:27.143Z,65.66
2022-11-26T18:48:10.887Z,65.14
2022-11-26T18:50:58.121Z,65.23
2022-11-26T18:53:43.728Z,66.16
2022-11-26T18:56:27.466Z,65.63
2022-11-26T18:59:11.575Z,65.88
2022-11-26T19:01:55.304Z,65.23
2022-11-26T19:04:39.550Z,66.31
2022-11-26T19:07:23.334Z,66.12
2022-11-26T19:10:09.754Z,67.41
2022-11-26T19:12:53.560Z,66.01
2022-11-26T19:15:42.160Z,66.20
2022-11-26T19:18:25.956Z,66.36
2022-11-26T19:21:18.625Z,65.92
2022-11-26T19:24:04.092Z,65.93
2022-11-26T19:26:49.555Z,66.11
2022-11-26T19:29:33.529Z,66.13
2022-11-26T19:32:17.358Z,66.80
2022-11-26T19:35:05.593Z,66.88
2022-11-26T19:37:50.254Z,66.54
2022-11-26T19:40:34.225Z,67.37
2022-11-26T19:43:19.664Z,66.70
2022-11-26T19:46:05.328Z,66.20
2022-11-26T19:48:51.682Z,67.46
2022-11-26T19:51:35.761Z,66.80
2022-11-26T19:54:19.756Z,66.42
2022-11-26T19:57:03.832Z,66.75
2022-11-26T19:59:49.338Z,65.92
2022-11-26T20:02:33.491Z,66.91
2022-11-26T20:05:17.803Z,66.59
2022-11-26T20:08:01.710Z,67.14
2022-11-26T20:10:49.887Z,65.96
2022-11-26T20:13:34.863Z,66.66
2022-11-26T20:16:22.085Z,66.20
2022-11-26T20:19:06.118Z,67.21
2022-11-26T20:21:51.242Z,67.13
2022-11-26T20:24:35.336Z,66.62
2022-11-26T20:27:19.275Z,68.30
2022-11-26T20:30:03.230Z,66.58
2022-11-26T20:32:49.238Z,67.15
2022-11-26T20:35:33.102Z,67.08
2022-11-26T20:38:17.011Z,65.88
2022-11-26T20:41:01.059Z,65.06
2022-11-26T20:43:45.239Z,64.92
2022-11-26T20:46:49.133Z,64.90
2022-11-26T20:49:37.805Z,65.00
2022-11-26T20:52:25.105Z,65.00
2022-11-26T20:55:10.410Z,64.75
2022-11-26T20:57:54.545Z,64.55
2022-11-26T21:00:42.594Z,63.88
2022-11-26T21:03:28.085Z,65.83
2022-11-26T21:06:14.285Z,65.82
2022-11-26T21:09:00.078Z,65.32
2022-11-26T21:11:44.137Z,64.90
2022-11-26T21:14:29.719Z,64.37
2022-11-26T21:17:14.643Z,64.01
2022-11-26T21:19:58.615Z,64.25
2022-11-26T21:22:44.965Z,64.01
2022-11-26T21:25:28.901Z,63.16
2022-11-26T21:28:14.983Z,62.41
2022-11-26T21:30:59.049Z,62.42
2022-11-26T21:33:43.005Z,62.58
2022-11-26T21:36:27.561Z,63.07
2022-11-26T21:39:16.453Z,64.02
2022-11-26T21:42:00.382Z,62.95
2022-11-26T21:44:44.341Z,63.10
2022-11-26T21:47:28.269Z,63.41
2022-11-26T21:50:12.567Z,63.00
2022-11-26T21:52:56.401Z,62.66
2022-11-26T21:55:41.548Z,62.19
2022-11-26T21:58:25.410Z,62.63
2022-11-26T22:01:13.628Z,63.48
2022-11-26T22:04:00.524Z,62.99
2022-11-26T22:06:45.258Z,62.68
2022-11-26T22:09:29.108Z,63.87
2022-11-26T22:12:14.285Z,64.06
2022-11-26T22:14:57.967Z,64.15
2022-11-26T22:17:41.834Z,64.43
2022-11-26T22:20:25.529Z,62.80
2022-11-26T22:23:09.413Z,63.46
2022-11-26T22:25:53.109Z,63.48
2022-11-26T22:28:39.311Z,64.67
2022-11-26T22:31:26.832Z,63.91
2022-11-26T22:34:12.874Z,64.55
2022-11-26T22:36:56.648Z,64.26
2022-11-26T22:39:40.542Z,64.83
2022-11-26T22:42:24.566Z,63.30
2022-11-26T22:45:11.649Z,63.81
2022-11-26T22:47:55.496Z,63.91
2022-11-26T22:50:39.282Z,63.19
2022-11-26T22:53:23.783Z,63.46
2022-11-26T22:56:08.251Z,63.84
2022-11-26T22:58:52.067Z,63.74
2022-11-26T23:01:38.800Z,63.60
2022-11-26T23:04:22.513Z,63.91
2022-11-26T23:07:06.297Z,63.40
2022-11-26T23:09:50.266Z,64.29
2022-11-26T23:12:34.123Z,63.96
2022-11-26T23:15:17.977Z,63.79
2022-11-26T23:18:03.249Z,63.61
2022-11-26T23:20:47.272Z,64.45
2022-11-26T23:23:31.237Z,65.56
2022-11-26T23:26:21.821Z,65.85
2022-11-26T23:29:09.528Z,64.76
2022-11-26T23:31:53.474Z,65.97
2022-11-26T23:34:38.614Z,65.75
2022-11-26T23:37:22.296Z,66.35
2022-11-26T23:40:07.775Z,64.99
2022-11-26T23:42:51.502Z,65.12
2022-11-26T23:45:35.270Z,65.43
2022-11-26T23:48:19.084Z,64.46
2022-11-26T23:51:07.425Z,65.55
2022-11-26T23:53:52.093Z,64.95
2022-11-26T23:56:36.315Z,66.08
2022-11-26T23:59:20.278Z,65.73
